createdAt,value
2023-05-14T00:00:15.354Z,11.27
2023-05-14T00:04:19.597Z,13.07
2023-05-14T00:08:22.350Z,12.20
2023-05-14T00:12:26.299Z,13.63
2023-05-14T00:16:30.441Z,14.27
2023-05-14T00:20:33.227Z,12.37
2023-05-14T00:24:36.189Z,13.33
2023-05-14T00:28:38.857Z,14.60
2023-05-14T00:32:43.180Z,12.50
2023-05-14T00:36:45.990Z,13.70
2023-05-14T00:40:51.794Z,16.43
2023-05-14T00:44:54.630Z,17.00
2023-05-14T00:49:02.625Z,19.13
2023-05-14T00:53:10.094Z,18.40
2023-05-14T00:57:13.185Z,18.83
2023-05-14T01:01:16.654Z,18.17
2023-05-14T01:05:25.234Z,16.70
2023-05-14T01:09:37.262Z,17.83
2023-05-14T01:13:49.827Z,16.00
2023-05-14T01:17:55.971Z,17.13
2023-05-14T01:22:00.076Z,19.27
2023-05-14T01:26:02.822Z,21.90
2023-05-14T01:30:22.496Z,20.20
2023-05-14T01:34:29.418Z,20.53
2023-05-14T01:38:35.286Z,20.00
2023-05-14T01:42:39.195Z,18.67
2023-05-14T01:46:42.448Z,21.07
2023-05-14T01:50:45.188Z,20.10
2023-05-14T01:54:49.622Z,21.67
2023-05-14T01:58:52.413Z,19.60
2023-05-14T02:02:55.481Z,18.17
2023-05-14T02:06:59.389Z,18.80
2023-05-14T02:11:03.493Z,18.73
2023-05-14T02:15:08.876Z,21.50
2023-05-14T02:19:12.226Z,17.07
2023-05-14T02:23:15.000Z,18.20
2023-05-14T02:27:21.404Z,18.63
2023-05-14T02:31:24.154Z,17.40
2023-05-14T02:35:28.198Z,18.63
2023-05-14T02:39:30.971Z,18.70
2023-05-14T02:43:35.167Z,17.93
2023-05-14T02:47:38.320Z,16.90
2023-05-14T02:51:41.513Z,17.57
2023-05-14T02:55:44.233Z,21.20
2023-05-14T02:59:48.292Z,18.47
2023-05-14T03:03:51.573Z,18.37
2023-05-14T03:07:55.358Z,18.87
2023-05-14T03:11:58.535Z,20.60
2023-05-14T03:16:02.555Z,20.00
2023-05-14T03:20:05.884Z,20.90
2023-05-14T03:24:08.694Z,19.93
2023-05-14T03:28:11.457Z,20.07
2023-05-14T03:32:15.955Z,19.50
2023-05-14T03:36:18.741Z,21.47
2023-05-14T03:40:23.026Z,21.53
2023-05-14T03:44:26.215Z,22.13
2023-05-14T03:48:30.807Z,19.93
2023-05-14T03:52:33.726Z,22.63
2023-05-14T03:56:38.577Z,20.30
2023-05-14T04:00:42.030Z,21.73
2023-05-14T04:04:48.026Z,23.13
2023-05-14T04:08:54.409Z,21.43
2023-05-14T04:12:57.175Z,22.53
2023-05-14T04:17:04.000Z,23.77
2023-05-14T04:21:08.396Z,23.53
2023-05-14T04:25:11.260Z,23.60
2023-05-14T04:29:13.985Z,22.30
2023-05-14T04:33:17.553Z,27.70
2023-05-14T04:37:21.639Z,25.17
2023-05-14T04:41:24.342Z,25.87
2023-05-14T04:45:27.546Z,26.73
2023-05-14T04:49:30.869Z,28.07
2023-05-14T04:53:34.955Z,24.47
2023-05-14T04:57:37.695Z,24.47
2023-05-14T05:01:40.671Z,26.13
2023-05-14T05:05:43.474Z,26.67
2023-05-14T05:09:47.611Z,25.87
2023-05-14T05:13:51.480Z,26.13
2023-05-14T05:17:54.367Z,25.10
2023-05-14T05:21:57.224Z,26.20
2023-05-14T05:26:01.549Z,24.47
2023-05-14T05:30:04.877Z,26.33
2023-05-14T05:34:07.661Z,23.87
2023-05-14T05:38:10.596Z,26.60
2023-05-14T05:42:14.769Z,24.83
2023-05-14T05:46:17.537Z,27.23
2023-05-14T05:50:20.739Z,25.77
2023-05-14T05:54:24.380Z,25.50
2023-05-14T05:58:28.453Z,22.00
2023-05-14T06:02:31.251Z,24.93
2023-05-14T06:06:34.152Z,25.30
2023-05-14T06:10:37.525Z,23.37
2023-05-14T06:14:41.725Z,20.77
2023-05-14T06:18:44.427Z,19.93
2023-05-14T06:22:47.287Z,21.40
2023-05-14T06:26:50.035Z,20.07
2023-05-14T06:30:54.616Z,19.17
2023-05-14T06:34:57.391Z,17.37
2023-05-14T06:39:00.122Z,19.07
2023-05-14T06:43:02.873Z,16.83
2023-05-14T06:47:08.502Z,18.07
2023-05-14T06:51:13.128Z,16.13
2023-05-14T06:55:15.822Z,14.77
2023-05-14T06:59:18.679Z,15.40
2023-05-14T07:03:23.036Z,14.10
2023-05-14T07:07:25.810Z,12.53
2023-05-14T07:11:28.695Z,12.17
2023-05-14T07:15:31.645Z,12.37
2023-05-14T07:19:35.772Z,12.33
2023-05-14T07:23:38.709Z,12.27
2023-05-14T07:27:41.428Z,12.03
2023-05-14T07:31:44.207Z,11.23
2023-05-14T07:35:48.429Z,11.77
2023-05-14T07:39:51.185Z,10.10
2023-05-14T07:43:53.922Z,11.40
2023-05-14T07:47:57.916Z,10.90
2023-05-14T07:52:02.731Z,9.57
2023-05-14T07:56:06.215Z,9.43
2023-05-14T08:00:11.619Z,10.00
2023-05-14T08:04:18.292Z,8.93
2023-05-14T08:08:23.101Z,9.03
2023-05-14T08:12:26.822Z,15.77
2023-05-14T08:16:30.391Z,10.70
2023-05-14T08:20:33.294Z,9.50
2023-05-14T08:24:37.391Z,9.30
2023-05-14T08:28:47.791Z,8.40
2023-05-14T08:32:50.899Z,8.87
2023-05-14T08:36:54.150Z,9.20
2023-05-14T08:40:59.860Z,12.23
2023-05-14T08:45:06.746Z,8.40
2023-05-14T08:49:18.953Z,8.70
2023-05-14T08:53:21.934Z,7.67
2023-05-14T08:57:27.705Z,7.27
2023-05-14T09:01:30.825Z,7.03
2023-05-14T09:05:36.628Z,7.13
2023-05-14T09:09:40.381Z,6.57
2023-05-14T09:13:47.781Z,6.10
2023-05-14T09:17:50.861Z,6.17
2023-05-14T09:21:58.684Z,6.07
2023-05-14T09:26:06.109Z,6.90
2023-05-14T09:30:12.608Z,6.85
2023-05-14T09:34:25.007Z,6.33
2023-05-14T09:38:31.029Z,6.18
2023-05-14T09:42:33.916Z,5.78
2023-05-14T09:46:39.345Z,6.93
2023-05-14T09:50:43.415Z,6.72
2023-05-14T09:54:47.788Z,5.63
2023-05-14T09:58:50.856Z,5.78
2023-05-14T10:02:56.099Z,5.40
2023-05-14T10:06:58.957Z,5.40
2023-05-14T10:11:05.867Z,5.55
2023-05-14T10:15:18.653Z,4.35
2023-05-14T10:19:26.165Z,4.95
2023-05-14T10:23:29.899Z,5.15
2023-05-14T10:27:33.583Z,4.70
2023-05-14T10:31:51.569Z,3.90
2023-05-14T10:36:02.092Z,4.25
2023-05-14T10:40:06.529Z,4.40
2023-05-14T10:44:21.434Z,6.60
2023-05-14T10:48:26.537Z,4.13
2023-05-14T10:52:30.636Z,4.32
2023-05-14T10:56:34.419Z,4.40
2023-05-14T11:00:40.214Z,5.03
2023-05-14T11:04:43.085Z,4.35
2023-05-14T11:08:46.547Z,4.00
2023-05-14T11:12:50.887Z,4.35
2023-05-14T11:16:55.644Z,4.45
2023-05-14T11:21:01.873Z,4.25
2023-05-14T11:25:05.101Z,4.53
2023-05-14T11:29:07.794Z,3.85
2023-05-14T11:33:12.011Z,3.67
2023-05-14T11:37:16.806Z,3.90
2023-05-14T11:41:21.295Z,4.55
2023-05-14T11:45:27.436Z,4.50
2023-05-14T11:49:32.390Z,4.33
2023-05-14T11:53:35.677Z,3.90
2023-05-14T11:57:38.495Z,4.97
2023-05-14T12:01:41.361Z,4.57
2023-05-14T12:05:57.891Z,4.40
2023-05-14T12:10:03.116Z,4.03
2023-05-14T12:14:12.249Z,4.73
2023-05-14T12:18:24.248Z,4.53
2023-05-14T12:22:30.877Z,4.07
2023-05-14T12:26:34.483Z,4.40
2023-05-14T12:30:39.137Z,4.47
2023-05-14T12:34:41.911Z,3.93
2023-05-14T12:38:46.077Z,5.60
2023-05-14T12:42:48.814Z,4.40
2023-05-14T12:46:51.595Z,4.40
2023-05-14T12:50:54.376Z,4.57
2023-05-14T12:54:58.448Z,4.90
2023-05-14T12:59:01.121Z,4.40
2023-05-14T13:03:03.865Z,4.60
2023-05-14T13:07:08.812Z,4.47
2023-05-14T13:11:12.976Z,4.37
2023-05-14T13:15:16.268Z,19.33
2023-05-14T13:19:19.039Z,4.70
2023-05-14T13:23:21.713Z,4.53
2023-05-14T13:27:26.450Z,4.87
2023-05-14T13:31:29.241Z,4.97
2023-05-14T13:35:31.987Z,4.97
2023-05-14T13:39:34.748Z,4.43
2023-05-14T13:43:38.968Z,4.30
2023-05-14T13:47:41.693Z,4.47
2023-05-14T13:51:44.470Z,4.37
2023-05-14T13:55:49.045Z,4.30
2023-05-14T13:59:53.454Z,4.20
2023-05-14T14:03:56.192Z,5.37
2023-05-14T14:08:04.366Z,5.17
2023-05-14T14:12:15.904Z,5.50
2023-05-14T14:16:20.114Z,5.30
2023-05-14T14:20:22.812Z,4.83
2023-05-14T14:24:26.520Z,7.43
2023-05-14T14:28:29.504Z,4.80
2023-05-14T14:32:34.502Z,4.90
2023-05-14T14:36:37.629Z,4.93
2023-05-14T14:40:40.358Z,5.20
2023-05-14T14:44:43.306Z,5.00
2023-05-14T14:48:47.824Z,5.17
2023-05-14T14:52:51.459Z,5.10
2023-05-14T14:56:54.646Z,5.80
2023-05-14T15:00:59.269Z,5.10
2023-05-14T15:05:03.597Z,3.93
2023-05-14T15:09:07.701Z,4.90
2023-05-14T15:13:12.014Z,5.47
2023-05-14T15:17:14.925Z,4.70
2023-05-14T15:21:19.039Z,4.97
2023-05-14T15:25:22.701Z,5.73
2023-05-14T15:29:25.601Z,4.47
2023-05-14T15:33:28.391Z,5.17
2023-05-14T15:37:37.996Z,6.03
2023-05-14T15:41:40.779Z,7.47
2023-05-14T15:45:45.592Z,23.03
2023-05-14T15:49:48.681Z,12.87
2023-05-14T15:53:58.722Z,5.60
2023-05-14T15:58:02.196Z,7.23
2023-05-14T16:02:06.140Z,13.37
2023-05-14T16:06:09.141Z,9.73
2023-05-14T16:10:13.558Z,6.43
2023-05-14T16:14:16.298Z,6.27
2023-05-14T16:18:19.113Z,5.30
2023-05-14T16:22:21.884Z,5.63
2023-05-14T16:26:26.375Z,7.10
2023-05-14T16:30:29.150Z,7.50
2023-05-14T16:34:32.243Z,6.10
2023-05-14T16:38:38.561Z,5.63
2023-05-14T16:42:47.745Z,5.00
2023-05-14T16:46:52.081Z,5.53
2023-05-14T16:50:56.058Z,7.83
2023-05-14T16:54:58.846Z,5.57
2023-05-14T16:59:02.835Z,4.97
2023-05-14T17:03:06.680Z,7.27
2023-05-14T17:07:09.542Z,7.17
2023-05-14T17:11:12.294Z,6.20
2023-05-14T17:15:16.581Z,5.60
2023-05-14T17:19:19.334Z,20.07
2023-05-14T17:23:22.119Z,18.70
2023-05-14T17:27:25.212Z,8.80
2023-05-14T17:31:29.447Z,7.33
2023-05-14T17:35:35.725Z,5.10
2023-05-14T17:39:38.579Z,6.70
2023-05-14T17:43:41.260Z,8.00
2023-05-14T17:47:45.435Z,9.30
2023-05-14T17:51:48.154Z,6.17
2023-05-14T17:55:51.668Z,5.40
2023-05-14T17:59:54.863Z,10.83
2023-05-14T18:03:59.475Z,7.27
2023-05-14T18:08:02.475Z,6.40
2023-05-14T18:12:05.980Z,5.90
2023-05-14T18:16:09.025Z,5.80
2023-05-14T18:20:14.201Z,6.47
2023-05-14T18:24:19.648Z,6.40
2023-05-14T18:28:23.410Z,5.70
2023-05-14T18:32:27.296Z,5.73
2023-05-14T18:36:32.607Z,5.77
2023-05-14T18:40:36.839Z,6.07
2023-05-14T18:44:44.121Z,5.53
2023-05-14T18:48:48.527Z,4.93
2023-05-14T18:52:55.948Z,5.13
2023-05-14T18:57:01.188Z,6.63
2023-05-14T19:01:04.379Z,5.57
2023-05-14T19:05:12.379Z,6.00
2023-05-14T19:09:21.350Z,5.73
2023-05-14T19:13:25.076Z,5.67
2023-05-14T19:17:32.959Z,5.60
2023-05-14T19:21:36.223Z,6.10
2023-05-14T19:25:41.385Z,7.30
2023-05-14T19:29:45.294Z,7.80
2023-05-14T19:33:50.399Z,7.33
2023-05-14T19:37:56.291Z,7.27
2023-05-14T20:19:04.214Z,10.97
2023-05-14T20:23:07.551Z,11.17
2023-05-14T20:27:13.259Z,10.50
2023-05-14T20:31:16.400Z,11.43
2023-05-14T20:35:21.898Z,11.00
2023-05-14T20:39:25.436Z,9.73
2023-05-14T20:43:28.821Z,8.83
2023-05-14T20:47:34.070Z,8.73
2023-05-14T20:51:38.734Z,8.47
2023-05-14T20:55:42.210Z,8.40
2023-05-14T20:59:45.007Z,15.83
2023-05-14T21:03:47.990Z,15.07
2023-05-14T21:07:52.386Z,9.53
2023-05-14T21:11:55.560Z,9.00
2023-05-14T21:16:00.159Z,8.87
2023-05-14T21:20:03.266Z,8.13
2023-05-14T21:24:08.073Z,8.43
2023-05-14T21:28:10.776Z,9.57
2023-05-14T21:32:13.552Z,9.27
2023-05-14T21:36:16.339Z,10.43
2023-05-14T21:40:20.646Z,9.60
2023-05-14T21:44:26.533Z,11.23
2023-05-14T21:48:29.531Z,11.43
2023-05-14T21:52:35.301Z,12.27
2023-05-14T21:56:39.759Z,12.20
2023-05-14T22:00:42.533Z,16.87
2023-05-14T22:04:45.488Z,17.13
2023-05-14T22:08:48.361Z,16.03
2023-05-14T22:12:52.501Z,16.70
2023-05-14T22:16:55.461Z,14.53
2023-05-14T22:20:58.358Z,16.30
2023-05-14T22:25:01.070Z,16.27
2023-05-14T22:29:05.246Z,15.57
2023-05-14T22:33:08.305Z,15.37
2023-05-14T22:37:11.615Z,19.13
2023-05-14T22:41:14.318Z,17.87
2023-05-14T22:45:18.651Z,21.43
2023-05-14T22:49:23.451Z,22.53
2023-05-14T22:53:26.377Z,25.70
2023-05-14T22:57:29.158Z,21.83
2023-05-14T23:01:33.292Z,25.77
2023-05-14T23:05:36.197Z,23.23
2023-05-14T23:09:38.923Z,27.47
2023-05-14T23:13:42.039Z,25.77
2023-05-14T23:17:46.234Z,27.23
2023-05-14T23:21:49.352Z,27.50
2023-05-14T23:25:52.647Z,28.60
2023-05-14T23:29:55.468Z,28.20
2023-05-14T23:33:59.519Z,28.80
2023-05-14T23:38:02.293Z,25.60
2023-05-14T23:42:05.084Z,28.07
2023-05-14T23:46:08.714Z,28.80
2023-05-14T23:50:12.966Z,29.83
2023-05-14T23:54:17.239Z,28.10
2023-05-14T23:58:20.105Z,31.47
